sensor_id;sensor_type;location;lat;lon;timestamp;pressure;altitude;pressure_sealevel;temperature;humidity
71105;BME280;58760;48.716;8.962;2023-04-09T00:02:13;97121.31;;;4.91;89.17
71105;BME280;58760;48.716;8.962;2023-04-09T00:04:38;97116.19;;;4.90;89.02
71105;BME280;58760;48.716;8.962;2023-04-09T00:07:04;97115.34;;;4.89;89.07
71105;BME280;58760;48.716;8.962;2023-04-09T00:09:29;97112.47;;;4.92;88.88
71105;BME280;58760;48.716;8.962;2023-04-09T00:11:56;97118.31;;;4.96;89.40
71105;BME280;58760;48.716;8.962;2023-04-09T00:14:22;97113.66;;;4.99;89.33
71105;BME280;58760;48.716;8.962;2023-04-09T00:16:48;97110.88;;;5.01;88.91
71105;BME280;58760;48.716;8.962;2023-04-09T00:19:13;97112.44;;;5.03;89.15
71105;BME280;58760;48.716;8.962;2023-04-09T00:21:38;97113.63;;;5.10;89.08
71105;BME280;58760;48.716;8.962;2023-04-09T00:24:04;97112.63;;;5.11;88.65
71105;BME280;58760;48.716;8.962;2023-04-09T00:26:30;97112.13;;;5.17;88.60
71105;BME280;58760;48.716;8.962;2023-04-09T00:28:55;97111.88;;;5.20;88.70
71105;BME280;58760;48.716;8.962;2023-04-09T00:31:21;97101.94;;;5.24;88.34
71105;BME280;58760;48.716;8.962;2023-04-09T00:33:46;97104.47;;;5.25;88.33
71105;BME280;58760;48.716;8.962;2023-04-09T00:36:11;97107.22;;;5.24;88.21
71105;BME280;58760;48.716;8.962;2023-04-09T00:38:37;97088.78;;;5.24;88.51
71105;BME280;58760;48.716;8.962;2023-04-09T00:41:02;97101.84;;;5.25;88.44
71105;BME280;58760;48.716;8.962;2023-04-09T00:43:28;97090.34;;;5.26;88.50
71105;BME280;58760;48.716;8.962;2023-04-09T00:45:53;97094.53;;;5.29;88.76
71105;BME280;58760;48.716;8.962;2023-04-09T00:48:19;97094.38;;;5.31;88.59
71105;BME280;58760;48.716;8.962;2023-04-09T00:50:44;97105.38;;;5.36;88.76
71105;BME280;58760;48.716;8.962;2023-04-09T00:53:11;97103.84;;;5.33;89.11
71105;BME280;58760;48.716;8.962;2023-04-09T00:55:38;97095.69;;;5.36;89.15
71105;BME280;58760;48.716;8.962;2023-04-09T00:58:04;97098.19;;;5.38;88.92
71105;BME280;58760;48.716;8.962;2023-04-09T01:00:30;97093.44;;;5.32;90.07
71105;BME280;58760;48.716;8.962;2023-04-09T01:02:56;97102.94;;;5.23;90.89
71105;BME280;58760;48.716;8.962;2023-04-09T01:05:24;97090.59;;;5.23;91.47
71105;BME280;58760;48.716;8.962;2023-04-09T01:10:42;97102.53;;;5.27;92.27
71105;BME280;58760;48.716;8.962;2023-04-09T01:13:17;97094.78;;;5.26;92.06
71105;BME280;58760;48.716;8.962;2023-04-09T01:15:50;97100.44;;;5.42;91.93
71105;BME280;58760;48.716;8.962;2023-04-09T01:18:39;97090.69;;;5.33;91.27
71105;BME280;58760;48.716;8.962;2023-04-09T01:21:12;97096.38;;;5.38;90.61
71105;BME280;58760;48.716;8.962;2023-04-09T01:23:53;97098.19;;;5.38;90.17
71105;BME280;58760;48.716;8.962;2023-04-09T01:26:37;97096.44;;;5.27;90.67
71105;BME280;58760;48.716;8.962;2023-04-09T01:29:06;97097.06;;;5.19;91.18
71105;BME280;58760;48.716;8.962;2023-04-09T01:31:34;97098.72;;;5.20;91.05
71105;BME280;58760;48.716;8.962;2023-04-09T01:34:01;97097.59;;;5.13;91.82
71105;BME280;58760;48.716;8.962;2023-04-09T01:36:29;97097.09;;;5.08;92.31
71105;BME280;58760;48.716;8.962;2023-04-09T01:38:55;97095.44;;;5.07;92.70
71105;BME280;58760;48.716;8.962;2023-04-09T01:41:21;97092.09;;;5.05;92.66
71105;BME280;58760;48.716;8.962;2023-04-09T01:43:51;97096.41;;;5.06;92.46
71105;BME280;58760;48.716;8.962;2023-04-09T01:46:18;97102.38;;;5.08;92.51
71105;BME280;58760;48.716;8.962;2023-04-09T01:48:44;97102.97;;;5.12;92.07
71105;BME280;58760;48.716;8.962;2023-04-09T01:51:11;97099.97;;;5.16;91.92
71105;BME280;58760;48.716;8.962;2023-04-09T01:53:38;97096.50;;;5.16;91.63
71105;BME280;58760;48.716;8.962;2023-04-09T01:56:04;97104.13;;;5.19;91.59
71105;BME280;58760;48.716;8.962;2023-04-09T01:58:30;97090.38;;;5.15;91.54
71105;BME280;58760;48.716;8.962;2023-04-09T02:01:09;97105.22;;;5.16;91.55
71105;BME280;58760;48.716;8.962;2023-04-09T02:03:46;97104.38;;;5.16;91.47
71105;BME280;58760;48.716;8.962;2023-04-09T02:06:22;97094.81;;;5.15;91.25
71105;BME280;58760;48.716;8.962;2023-04-09T02:08:51;97097.19;;;5.18;91.39
71105;BME280;58760;48.716;8.962;2023-04-09T02:11:17;97094.69;;;5.16;91.83
71105;BME280;58760;48.716;8.962;2023-04-09T02:13:46;97096.50;;;5.16;91.99
71105;BME280;58760;48.716;8.962;2023-04-09T02:16:14;97099.22;;;5.14;92.14
71105;BME280;58760;48.716;8.962;2023-04-09T02:18:41;97093.72;;;5.17;92.07
71105;BME280;58760;48.716;8.962;2023-04-09T02:21:06;97098.41;;;5.14;92.46
71105;BME280;58760;48.716;8.962;2023-04-09T02:23:32;97095.66;;;5.15;92.71
71105;BME280;58760;48.716;8.962;2023-04-09T02:25:58;97095.91;;;5.12;92.72
71105;BME280;58760;48.716;8.962;2023-04-09T02:28:23;97088.00;;;5.12;92.75
71105;BME280;58760;48.716;8.962;2023-04-09T02:30:49;97091.22;;;5.16;92.97
71105;BME280;58760;48.716;8.962;2023-04-09T02:33:14;97094.44;;;5.19;92.89
71105;BME280;58760;48.716;8.962;2023-04-09T02:35:42;97087.50;;;5.18;92.59
71105;BME280;58760;48.716;8.962;2023-04-09T02:38:08;97087.50;;;5.18;92.15
71105;BME280;58760;48.716;8.962;2023-04-09T02:40:39;97093.28;;;5.12;91.87
71105;BME280;58760;48.716;8.962;2023-04-09T02:43:05;97088.28;;;5.09;92.01
71105;BME280;58760;48.716;8.962;2023-04-09T02:45:30;97094.38;;;5.10;92.37
71105;BME280;58760;48.716;8.962;2023-04-09T02:47:56;97083.44;;;5.14;92.41
71105;BME280;58760;48.716;8.962;2023-04-09T02:50:21;97092.31;;;5.13;91.68
71105;BME280;58760;48.716;8.962;2023-04-09T02:52:46;97097.59;;;5.13;91.63
71105;BME280;58760;48.716;8.962;2023-04-09T02:55:12;97089.81;;;5.12;91.63
71105;BME280;58760;48.716;8.962;2023-04-09T02:57:38;97090.91;;;5.09;91.35
71105;BME280;58760;48.716;8.962;2023-04-09T03:00:03;97086.59;;;5.08;91.17
71105;BME280;58760;48.716;8.962;2023-04-09T03:02:29;97088.53;;;5.06;91.20
71105;BME280;58760;48.716;8.962;2023-04-09T03:04:54;97086.00;;;5.05;92.28
71105;BME280;58760;48.716;8.962;2023-04-09T03:07:21;97088.03;;;5.01;92.88
71105;BME280;58760;48.716;8.962;2023-04-09T03:09:46;97084.22;;;4.94;93.70
71105;BME280;58760;48.716;8.962;2023-04-09T03:12:11;97079.22;;;4.91;93.76
71105;BME280;58760;48.716;8.962;2023-04-09T03:14:37;97083.19;;;4.86;93.84
71105;BME280;58760;48.716;8.962;2023-04-09T03:17:02;97074.47;;;4.85;94.42
71105;BME280;58760;48.716;8.962;2023-04-09T03:19:29;97073.78;;;4.83;94.49
71105;BME280;58760;48.716;8.962;2023-04-09T03:21:55;97081.19;;;4.78;94.15
71105;BME280;58760;48.716;8.962;2023-04-09T03:24:20;97078.56;;;4.78;94.39
71105;BME280;58760;48.716;8.962;2023-04-09T03:26:45;97080.47;;;4.76;95.09
71105;BME280;58760;48.716;8.962;2023-04-09T03:29:11;97068.91;;;4.67;94.98
71105;BME280;58760;48.716;8.962;2023-04-09T03:31:36;97068.66;;;4.70;95.28
71105;BME280;58760;48.716;8.962;2023-04-09T03:34:01;97071.56;;;4.67;95.36
71105;BME280;58760;48.716;8.962;2023-04-09T03:36:27;97063.91;;;4.64;95.49
71105;BME280;58760;48.716;8.962;2023-04-09T03:38:52;97067.84;;;4.59;95.57
71105;BME280;58760;48.716;8.962;2023-04-09T03:41:18;97070.63;;;4.57;95.92
71105;BME280;58760;48.716;8.962;2023-04-09T03:43:43;97075.97;;;4.56;96.19
71105;BME280;58760;48.716;8.962;2023-04-09T03:46:12;97069.53;;;4.49;96.13
71105;BME280;58760;48.716;8.962;2023-04-09T03:48:38;97070.50;;;4.48;96.29
71105;BME280;58760;48.716;8.962;2023-04-09T03:51:03;97075.28;;;4.54;96.21
71105;BME280;58760;48.716;8.962;2023-04-09T03:53:29;97070.03;;;4.54;96.28
71105;BME280;58760;48.716;8.962;2023-04-09T03:55:54;97066.69;;;4.52;96.05
71105;BME280;58760;48.716;8.962;2023-04-09T03:58:20;97070.63;;;4.46;95.74
71105;BME280;58760;48.716;8.962;2023-04-09T04:00:45;97071.00;;;4.42;95.62
71105;BME280;58760;48.716;8.962;2023-04-09T04:03:11;97072.06;;;4.39;95.65
71105;BME280;58760;48.716;8.962;2023-04-09T04:05:38;97069.56;;;4.38;95.79
71105;BME280;58760;48.716;8.962;2023-04-09T04:08:04;97076.72;;;4.36;96.00
71105;BME280;58760;48.716;8.962;2023-04-09T04:10:29;97074.09;;;4.36;96.07
71105;BME280;58760;48.716;8.962;2023-04-09T04:12:55;97072.44;;;4.35;96.08
71105;BME280;58760;48.716;8.962;2023-04-09T04:15:20;97082.47;;;4.41;95.91
71105;BME280;58760;48.716;8.962;2023-04-09T04:17:45;97076.50;;;4.39;95.48
71105;BME280;58760;48.716;8.962;2023-04-09T04:20:11;97076.50;;;4.39;95.44
71105;BME280;58760;48.716;8.962;2023-04-09T04:22:36;97084.38;;;4.39;94.93
71105;BME280;58760;48.716;8.962;2023-04-09T04:25:03;97088.91;;;4.37;95.24
71105;BME280;58760;48.716;8.962;2023-04-09T04:27:28;97088.91;;;4.37;95.52
71105;BME280;58760;48.716;8.962;2023-04-09T04:29:54;97087.72;;;4.41;95.49
71105;BME280;58760;48.716;8.962;2023-04-09T04:32:22;97085.94;;;4.41;95.48
71105;BME280;58760;48.716;8.962;2023-04-09T04:34:48;97085.19;;;4.39;95.62
71105;BME280;58760;48.716;8.962;2023-04-09T04:37:14;97085.09;;;4.41;95.74
71105;BME280;58760;48.716;8.962;2023-04-09T04:39:39;97087.22;;;4.47;95.63
71105;BME280;58760;48.716;8.962;2023-04-09T04:42:05;97094.03;;;4.49;95.58
71105;BME280;58760;48.716;8.962;2023-04-09T04:44:30;97090.22;;;4.53;95.32
71105;BME280;58760;48.716;8.962;2023-04-09T04:46:55;97094.38;;;4.56;95.25
71105;BME280;58760;48.716;8.962;2023-04-09T04:49:21;97097.13;;;4.54;94.92
71105;BME280;58760;48.716;8.962;2023-04-09T04:51:46;97090.91;;;4.55;94.84
71105;BME280;58760;48.716;8.962;2023-04-09T04:54:11;97088.28;;;4.55;94.90
71105;BME280;58760;48.716;8.962;2023-04-09T04:56:37;97092.47;;;4.58;94.70
71105;BME280;58760;48.716;8.962;2023-04-09T04:59:02;97081.47;;;4.64;94.82
71105;BME280;58760;48.716;8.962;2023-04-09T05:01:27;97088.38;;;4.65;94.89
71105;BME280;58760;48.716;8.962;2023-04-09T05:03:53;97088.16;;;4.68;94.82
71105;BME280;58760;48.716;8.962;2023-04-09T05:06:18;97100.06;;;4.72;95.06
71105;BME280;58760;48.716;8.962;2023-04-09T05:08:43;97093.75;;;4.74;94.89
71105;BME280;58760;48.716;8.962;2023-04-09T05:11:12;97094.31;;;4.78;94.70
71105;BME280;58760;48.716;8.962;2023-04-09T05:13:39;97088.97;;;4.80;94.87
71105;BME280;58760;48.716;8.962;2023-04-09T05:16:05;97086.91;;;4.83;94.74
71105;BME280;58760;48.716;8.962;2023-04-09T05:18:30;97094.44;;;4.88;94.77
71105;BME280;58760;48.716;8.962;2023-04-09T05:20:56;97087.72;;;4.95;94.74
71105;BME280;58760;48.716;8.962;2023-04-09T05:23:21;97093.09;;;4.93;94.76
71105;BME280;58760;48.716;8.962;2023-04-09T05:25:49;97092.19;;;4.83;94.47
71105;BME280;58760;48.716;8.962;2023-04-09T05:28:15;97094.22;;;4.68;94.75
71105;BME280;58760;48.716;8.962;2023-04-09T05:30:45;97101.06;;;4.60;95.41
71105;BME280;58760;48.716;8.962;2023-04-09T05:33:10;97095.94;;;4.58;95.95
71105;BME280;58760;48.716;8.962;2023-04-09T05:35:38;97104.88;;;4.56;96.00
71105;BME280;58760;48.716;8.962;2023-04-09T05:38:04;97103.69;;;4.60;96.28
71105;BME280;58760;48.716;8.962;2023-04-09T05:40:29;97101.75;;;4.62;96.20
71105;BME280;58760;48.716;8.962;2023-04-09T05:42:55;97099.97;;;4.62;96.64
71105;BME280;58760;48.716;8.962;2023-04-09T05:45:20;97097.25;;;4.64;95.84
71105;BME280;58760;48.716;8.962;2023-04-09T05:47:45;97097.34;;;4.62;96.04
71105;BME280;58760;48.716;8.962;2023-04-09T05:50:11;97101.53;;;4.65;96.26
71105;BME280;58760;48.716;8.962;2023-04-09T05:52:36;97090.13;;;4.87;94.52
71105;BME280;58760;48.716;8.962;2023-04-09T05:55:02;97092.38;;;4.91;94.77
71105;BME280;58760;48.716;8.962;2023-04-09T05:57:27;97090.22;;;4.96;93.96
71105;BME280;58760;48.716;8.962;2023-04-09T05:59:54;97093.59;;;4.87;94.57
71105;BME280;58760;48.716;8.962;2023-04-09T06:02:20;97099.38;;;4.81;94.95
71105;BME280;58760;48.716;8.962;2023-04-09T06:04:45;97090.97;;;4.87;95.09
71105;BME280;58760;48.716;8.962;2023-04-09T06:07:10;97106.94;;;4.95;94.70
71105;BME280;58760;48.716;8.962;2023-04-09T06:09:36;97093.09;;;4.93;94.71
71105;BME280;58760;48.716;8.962;2023-04-09T06:12:02;97100.84;;;4.95;94.81
71105;BME280;58760;48.716;8.962;2023-04-09T06:14:28;97095.69;;;5.04;94.58
71105;BME280;58760;48.716;8.962;2023-04-09T06:16:53;97097.34;;;5.16;94.48
71105;BME280;58760;48.716;8.962;2023-04-09T06:19:20;97100.88;;;5.26;93.85
71105;BME280;58760;48.716;8.962;2023-04-09T06:21:46;97101.06;;;5.35;93.45
71105;BME280;58760;48.716;8.962;2023-04-09T06:24:11;97100.50;;;5.52;92.57
71105;BME280;58760;48.716;8.962;2023-04-09T06:26:36;97110.78;;;5.75;91.85
71105;BME280;58760;48.716;8.962;2023-04-09T06:29:02;97100.84;;;6.00;90.94
71105;BME280;58760;48.716;8.962;2023-04-09T06:31:27;97095.84;;;6.27;89.58
71105;BME280;58760;48.716;8.962;2023-04-09T06:33:52;97095.22;;;6.54;87.69
71105;BME280;58760;48.716;8.962;2023-04-09T06:36:18;97102.81;;;6.77;86.23
71105;BME280;58760;48.716;8.962;2023-04-09T06:38:44;97105.63;;;6.86;85.20
71105;BME280;58760;48.716;8.962;2023-04-09T06:41:09;97104.69;;;7.25;83.60
71105;BME280;58760;48.716;8.962;2023-04-09T06:43:36;97091.78;;;7.31;82.26
71105;BME280;58760;48.716;8.962;2023-04-09T06:46:02;97099.81;;;7.20;81.48
71105;BME280;58760;48.716;8.962;2023-04-09T06:48:27;97102.84;;;7.06;81.62
71105;BME280;58760;48.716;8.962;2023-04-09T06:50:53;97107.56;;;7.03;81.83
71105;BME280;58760;48.716;8.962;2023-04-09T06:53:18;97117.47;;;7.20;80.66
71105;BME280;58760;48.716;8.962;2023-04-09T06:55:44;97108.44;;;7.22;79.78
71105;BME280;58760;48.716;8.962;2023-04-09T06:58:09;97113.56;;;7.14;80.43
71105;BME280;58760;48.716;8.962;2023-04-09T07:00:35;97115.09;;;7.17;79.93
71105;BME280;58760;48.716;8.962;2023-04-09T07:03:00;97111.91;;;7.23;80.42
71105;BME280;58760;48.716;8.962;2023-04-09T07:05:26;97116.91;;;7.26;78.89
71105;BME280;58760;48.716;8.962;2023-04-09T07:07:51;97117.75;;;7.26;79.45
71105;BME280;58760;48.716;8.962;2023-04-09T07:10:17;97114.69;;;7.41;79.57
71105;BME280;58760;48.716;8.962;2023-04-09T07:12:42;97108.84;;;7.66;77.66
71105;BME280;58760;48.716;8.962;2023-04-09T07:15:08;97110.66;;;7.65;78.43
71105;BME280;58760;48.716;8.962;2023-04-09T07:17:33;97118.97;;;7.51;79.29
71105;BME280;58760;48.716;8.962;2023-04-09T07:19:59;97118.44;;;7.38;79.99
71105;BME280;58760;48.716;8.962;2023-04-09T07:22:27;97116.78;;;7.56;80.60
71105;BME280;58760;48.716;8.962;2023-04-09T07:24:53;97114.78;;;7.77;79.72
71105;BME280;58760;48.716;8.962;2023-04-09T07:27:26;97118.78;;;8.01;79.65
71105;BME280;58760;48.716;8.962;2023-04-09T07:29:55;97113.59;;;8.37;77.57
71105;BME280;58760;48.716;8.962;2023-04-09T07:32:22;97110.56;;;8.60;73.21
71105;BME280;58760;48.716;8.962;2023-04-09T07:34:47;97104.84;;;8.64;72.37
71105;BME280;58760;48.716;8.962;2023-04-09T07:37:13;97107.50;;;9.09;72.10
71105;BME280;58760;48.716;8.962;2023-04-09T07:39:38;97112.34;;;9.31;70.14
71105;BME280;58760;48.716;8.962;2023-04-09T07:42:04;97110.63;;;9.58;66.60
71105;BME280;58760;48.716;8.962;2023-04-09T07:44:35;97118.84;;;9.72;64.14
71105;BME280;58760;48.716;8.962;2023-04-09T07:47:02;97112.44;;;9.57;64.05
71105;BME280;58760;48.716;8.962;2023-04-09T07:49:27;97121.66;;;9.71;65.33
71105;BME280;58760;48.716;8.962;2023-04-09T07:51:53;97122.50;;;9.36;63.05
71105;BME280;58760;48.716;8.962;2023-04-09T07:54:18;97114.94;;;9.23;63.08
71105;BME280;58760;48.716;8.962;2023-04-09T07:56:45;97124.03;;;9.38;62.42
71105;BME280;58760;48.716;8.962;2023-04-09T07:59:11;97116.97;;;9.65;62.36
71105;BME280;58760;48.716;8.962;2023-04-09T08:01:36;97119.06;;;9.79;63.94
71105;BME280;58760;48.716;8.962;2023-04-09T08:04:02;97112.75;;;9.72;63.92
71105;BME280;58760;48.716;8.962;2023-04-09T08:06:27;97112.03;;;9.70;62.24
71105;BME280;58760;48.716;8.962;2023-04-09T08:08:53;97112.00;;;9.62;61.98
71105;BME280;58760;48.716;8.962;2023-04-09T08:11:18;97112.53;;;9.65;59.73
71105;BME280;58760;48.716;8.962;2023-04-09T08:13:50;97116.91;;;9.74;55.78
71105;BME280;58760;48.716;8.962;2023-04-09T08:16:16;97117.47;;;9.86;51.68
71105;BME280;58760;48.716;8.962;2023-04-09T08:18:41;97110.81;;;9.82;52.37
71105;BME280;58760;48.716;8.962;2023-04-09T08:21:06;97111.28;;;9.77;53.87
71105;BME280;58760;48.716;8.962;2023-04-09T08:23:32;97120.31;;;9.67;54.15
71105;BME280;58760;48.716;8.962;2023-04-09T08:25:57;97121.41;;;9.99;55.28
71105;BME280;58760;48.716;8.962;2023-04-09T08:28:23;97127.25;;;10.29;54.55
71105;BME280;58760;48.716;8.962;2023-04-09T08:30:48;97127.00;;;10.40;52.29
71105;BME280;58760;48.716;8.962;2023-04-09T08:33:14;97126.50;;;10.36;53.62
71105;BME280;58760;48.716;8.962;2023-04-09T08:35:39;97130.47;;;10.40;49.11
71105;BME280;58760;48.716;8.962;2023-04-09T08:38:05;97140.69;;;10.53;50.10
71105;BME280;58760;48.716;8.962;2023-04-09T08:40:34;97140.50;;;10.55;51.17
71105;BME280;58760;48.716;8.962;2023-04-09T08:43:04;97131.81;;;10.44;51.00
71105;BME280;58760;48.716;8.962;2023-04-09T08:45:29;97133.53;;;10.54;51.78
71105;BME280;58760;48.716;8.962;2023-04-09T08:47:55;97122.44;;;10.50;48.53
71105;BME280;58760;48.716;8.962;2023-04-09T08:50:24;97137.84;;;10.55;51.30
71105;BME280;58760;48.716;8.962;2023-04-09T08:52:50;97126.84;;;10.41;50.98
71105;BME280;58760;48.716;8.962;2023-04-09T08:55:15;97130.38;;;10.50;50.72
71105;BME280;58760;48.716;8.962;2023-04-09T08:57:41;97136.25;;;10.70;49.92
71105;BME280;58760;48.716;8.962;2023-04-09T09:00:07;97130.66;;;10.73;51.47
71105;BME280;58760;48.716;8.962;2023-04-09T09:02:33;97134.63;;;10.69;47.69
71105;BME280;58760;48.716;8.962;2023-04-09T09:04:58;97138.19;;;10.85;49.11
71105;BME280;58760;48.716;8.962;2023-04-09T09:07:27;97137.53;;;10.91;47.61
71105;BME280;58760;48.716;8.962;2023-04-09T09:10:00;97129.22;;;11.36;45.89
71105;BME280;58760;48.716;8.962;2023-04-09T09:14:58;97140.84;;;11.43;49.42
71105;BME280;58760;48.716;8.962;2023-04-09T09:17:24;97136.00;;;11.31;48.97
71105;BME280;58760;48.716;8.962;2023-04-09T09:19:50;97131.53;;;11.31;49.03
71105;BME280;58760;48.716;8.962;2023-04-09T09:22:15;97141.69;;;11.52;47.56
71105;BME280;58760;48.716;8.962;2023-04-09T09:24:45;97145.91;;;11.71;46.01
71105;BME280;58760;48.716;8.962;2023-04-09T09:27:48;97140.69;;;11.37;46.21
71105;BME280;58760;48.716;8.962;2023-04-09T09:30:22;97143.38;;;11.61;44.81
71105;BME280;58760;48.716;8.962;2023-04-09T09:33:12;97141.72;;;11.60;45.37
71105;BME280;58760;48.716;8.962;2023-04-09T09:35:51;97143.53;;;11.60;45.01
71105;BME280;58760;48.716;8.962;2023-04-09T09:38:19;97147.91;;;11.85;45.19
71105;BME280;58760;48.716;8.962;2023-04-09T09:40:46;97138.22;;;12.32;44.26
71105;BME280;58760;48.716;8.962;2023-04-09T09:43:14;97137.06;;;12.43;45.99
71105;BME280;58760;48.716;8.962;2023-04-09T09:45:40;97128.94;;;12.20;43.41
71105;BME280;58760;48.716;8.962;2023-04-09T09:48:09;97137.91;;;12.43;43.55
71105;BME280;58760;48.716;8.962;2023-04-09T09:50:36;97133.63;;;12.18;45.42
71105;BME280;58760;48.716;8.962;2023-04-09T09:53:04;97140.03;;;11.51;46.68
71105;BME280;58760;48.716;8.962;2023-04-09T09:55:31;97142.59;;;11.77;46.17
71105;BME280;58760;48.716;8.962;2023-04-09T09:58:00;97146.91;;;11.94;45.02
71105;BME280;58760;48.716;8.962;2023-04-09T10:00:28;97142.59;;;12.09;46.11
71105;BME280;58760;48.716;8.962;2023-04-09T10:02:58;97136.44;;;12.17;44.43
71105;BME280;58760;48.716;8.962;2023-04-09T10:05:27;97144.25;;;12.18;45.25
71105;BME280;58760;48.716;8.962;2023-04-09T10:07:56;97143.56;;;12.32;47.14
71105;BME280;58760;48.716;8.962;2023-04-09T10:10:23;97141.88;;;12.39;45.97
71105;BME280;58760;48.716;8.962;2023-04-09T10:12:49;97142.78;;;11.99;46.41
71105;BME280;58760;48.716;8.962;2023-04-09T10:15:15;97140.59;;;11.79;46.59
71105;BME280;58760;48.716;8.962;2023-04-09T10:17:41;97140.28;;;11.98;47.24
71105;BME280;58760;48.716;8.962;2023-04-09T10:20:14;97146.75;;;11.95;47.00
71105;BME280;58760;48.716;8.962;2023-04-09T10:22:46;97136.63;;;11.83;47.08
71105;BME280;58760;48.716;8.962;2023-04-09T10:25:13;97148.25;;;11.82;47.55
71105;BME280;58760;48.716;8.962;2023-04-09T10:27:39;97134.28;;;12.12;48.44
71105;BME280;58760;48.716;8.962;2023-04-09T10:30:05;97138.56;;;12.29;47.31
71105;BME280;58760;48.716;8.962;2023-04-09T10:32:34;97137.44;;;12.32;47.63
71105;BME280;58760;48.716;8.962;2023-04-09T10:35:02;97135.22;;;12.43;45.23
71105;BME280;58760;48.716;8.962;2023-04-09T10:37:28;97129.81;;;12.76;45.61
71105;BME280;58760;48.716;8.962;2023-04-09T10:39:54;97130.31;;;13.26;46.35
71105;BME280;58760;48.716;8.962;2023-04-09T10:42:31;97122.44;;;13.33;44.96
71105;BME280;58760;48.716;8.962;2023-04-09T10:45:10;97125.06;;;13.41;41.43
71105;BME280;58760;48.716;8.962;2023-04-09T10:47:41;97132.06;;;13.03;44.08
71105;BME280;58760;48.716;8.962;2023-04-09T10:50:22;97128.38;;;13.04;45.41
71105;BME280;58760;48.716;8.962;2023-04-09T10:52:54;97130.84;;;12.67;44.83
71105;BME280;58760;48.716;8.962;2023-04-09T10:55:38;97127.28;;;12.35;46.20
71105;BME280;58760;48.716;8.962;2023-04-09T10:58:08;97127.75;;;12.39;46.02
71105;BME280;58760;48.716;8.962;2023-04-09T11:00:42;97118.19;;;12.69;46.16
71105;BME280;58760;48.716;8.962;2023-04-09T11:03:27;97116.19;;;12.71;46.86
71105;BME280;58760;48.716;8.962;2023-04-09T11:05:57;97116.06;;;12.64;47.84
71105;BME280;58760;48.716;8.962;2023-04-09T11:08:27;97117.53;;;12.58;46.53
71105;BME280;58760;48.716;8.962;2023-04-09T11:10:53;97114.28;;;12.40;46.67
71105;BME280;58760;48.716;8.962;2023-04-09T11:13:22;97127.75;;;12.39;47.24
71105;BME280;58760;48.716;8.962;2023-04-09T11:15:48;97118.03;;;12.62;47.77
71105;BME280;58760;48.716;8.962;2023-04-09T11:18:18;97116.25;;;12.46;46.79
71105;BME280;58760;48.716;8.962;2023-04-09T11:20:45;97113.41;;;12.56;45.94
71105;BME280;58760;48.716;8.962;2023-04-09T11:23:11;97110.69;;;12.72;45.63
71105;BME280;58760;48.716;8.962;2023-04-09T11:25:37;97102.16;;;12.85;43.99
71105;BME280;58760;48.716;8.962;2023-04-09T11:28:03;97101.53;;;13.14;44.19
71105;BME280;58760;48.716;8.962;2023-04-09T11:30:29;97109.03;;;13.18;45.17
71105;BME280;58760;48.716;8.962;2023-04-09T11:32:55;97099.72;;;13.14;44.02
71105;BME280;58760;48.716;8.962;2023-04-09T11:35:21;97101.66;;;13.20;44.09
71105;BME280;58760;48.716;8.962;2023-04-09T11:37:47;97095.97;;;13.31;43.78
71105;BME280;58760;48.716;8.962;2023-04-09T11:40:20;97098.13;;;13.58;42.66
71105;BME280;58760;48.716;8.962;2023-04-09T11:42:48;97098.22;;;13.88;40.35
71105;BME280;58760;48.716;8.962;2023-04-09T11:45:15;97100.66;;;13.75;41.02
71105;BME280;58760;48.716;8.962;2023-04-09T11:47:42;97096.47;;;13.95;41.31
71105;BME280;58760;48.716;8.962;2023-04-09T11:50:09;97095.50;;;14.33;39.93
71105;BME280;58760;48.716;8.962;2023-04-09T11:52:36;97095.25;;;14.57;40.36
71105;BME280;58760;48.716;8.962;2023-04-09T11:55:02;97103.91;;;14.89;41.11
71105;BME280;58760;48.716;8.962;2023-04-09T11:57:58;97078.38;;;16.84;36.56
71105;BME280;58760;48.716;8.962;2023-04-09T12:00:25;97088.97;;;17.46;38.80
71105;BME280;58760;48.716;8.962;2023-04-09T12:03:00;97086.38;;;17.92;36.66
71105;BME280;58760;48.716;8.962;2023-04-09T12:05:33;97094.91;;;17.41;36.28
71105;BME280;58760;48.716;8.962;2023-04-09T12:08:02;97100.94;;;15.49;35.89
71105;BME280;58760;48.716;8.962;2023-04-09T12:10:32;97096.53;;;16.88;37.01
71105;BME280;58760;48.716;8.962;2023-04-09T12:13:06;97087.44;;;18.04;35.69
71105;BME280;58760;48.716;8.962;2023-04-09T12:15:33;97088.66;;;18.27;36.67
71105;BME280;58760;48.716;8.962;2023-04-09T12:17:59;97089.28;;;18.43;34.69
71105;BME280;58760;48.716;8.962;2023-04-09T12:20:32;97083.16;;;19.13;33.83
71105;BME280;58760;48.716;8.962;2023-04-09T12:22:59;97083.56;;;19.16;35.05
71105;BME280;58760;48.716;8.962;2023-04-09T12:25:26;97090.91;;;19.47;33.66
71105;BME280;58760;48.716;8.962;2023-04-09T12:27:52;97076.22;;;19.74;33.35
71105;BME280;58760;48.716;8.962;2023-04-09T12:30:18;97078.53;;;19.71;33.43
71105;BME280;58760;48.716;8.962;2023-04-09T12:32:44;97082.50;;;19.68;33.17
71105;BME280;58760;48.716;8.962;2023-04-09T12:35:10;97075.38;;;20.79;32.19
71105;BME280;58760;48.716;8.962;2023-04-09T12:37:36;97067.69;;;21.67;29.23
71105;BME280;58760;48.716;8.962;2023-04-09T12:40:01;97065.63;;;20.78;29.22
71105;BME280;58760;48.716;8.962;2023-04-09T12:42:27;97063.03;;;20.22;32.30
71105;BME280;58760;48.716;8.962;2023-04-09T12:44:53;97053.88;;;20.73;30.33
71105;BME280;58760;48.716;8.962;2023-04-09T12:47:18;97058.75;;;20.15;29.87
71105;BME280;58760;48.716;8.962;2023-04-09T12:49:43;97060.03;;;19.81;31.49
71105;BME280;58760;48.716;8.962;2023-04-09T12:52:13;97060.34;;;19.22;32.68
71105;BME280;58760;48.716;8.962;2023-04-09T12:54:39;97057.47;;;18.33;34.06
71105;BME280;58760;48.716;8.962;2023-04-09T12:57:05;97056.03;;;18.11;33.75
71105;BME280;58760;48.716;8.962;2023-04-09T12:59:31;97059.31;;;17.80;34.07
71105;BME280;58760;48.716;8.962;2023-04-09T13:01:56;97050.63;;;18.37;33.26
71105;BME280;58760;48.716;8.962;2023-04-09T13:04:22;97058.47;;;18.45;33.23
71105;BME280;58760;48.716;8.962;2023-04-09T13:06:47;97047.25;;;18.88;31.27
71105;BME280;58760;48.716;8.962;2023-04-09T13:09:13;97052.28;;;18.25;34.21
71105;BME280;58760;48.716;8.962;2023-04-09T13:11:38;97050.22;;;17.61;35.24
71105;BME280;58760;48.716;8.962;2023-04-09T13:14:04;97050.72;;;17.31;36.15